Costilla, New Mexico
Current Conditions -  °F | °C
As of 9:52 AM on Thursday 30 Oct 2014 (Local Time) from KALS Reporting Station
Clear Clear  
Wind Chill: 43°   Ceiling: Unl
Heat Index: 43°   Visibility: 10mi
Dew Point: 18°   Wind: 0mph
Humidity: 37%   Direction: NA
Pressure: 30.43"   Gusts: NA
Location:  36.99°N, 105.53°W
Report Text: KALS 301552Z AUTO 00000KT 10SM CLR 06/M08 A3043 RMK AO2 SLP285 T00611078
Loading
Personal Weather Stations






























Interactive Weather Map
Tropical Storm Tracking
New forecast layout! Learn more

10-Day Weather Forecast

Advertisements
Track Severe Weather on mobile